createdAt,value
2019-01-25T00:00:00.275Z,66.12
2019-01-25T00:02:30.619Z,92.08
2019-01-25T00:05:00.951Z,68.55
2019-01-25T00:07:30.988Z,73.97
2019-01-25T00:10:01.102Z,73.60
2019-01-25T00:12:31.345Z,68.57
2019-01-25T00:15:01.499Z,55.85
2019-01-25T00:17:31.677Z,61.68
2019-01-25T00:20:02.025Z,51.25
2019-01-25T00:22:31.999Z,54.42
2019-01-25T00:25:01.993Z,57.50
2019-01-25T00:27:32.145Z,52.62
2019-01-25T00:30:02.130Z,45.95
2019-01-25T00:32:32.114Z,47.75
2019-01-25T00:35:02.283Z,35.52
2019-01-25T00:37:32.206Z,37.48
2019-01-25T00:40:06.406Z,35.15
2019-01-25T00:42:34.194Z,38.80
2019-01-25T00:45:05.190Z,33.95
2019-01-25T00:47:35.581Z,40.35
2019-01-25T00:50:11.117Z,35.50
2019-01-25T00:52:41.684Z,36.10
2019-01-25T00:55:12.228Z,32.03
2019-01-25T00:57:42.552Z,40.52
2019-01-25T01:00:20.090Z,40.65
2019-01-25T01:02:50.931Z,42.60
2019-01-25T01:05:22.148Z,36.25
2019-01-25T01:07:52.940Z,45.10
2019-01-25T01:10:24.174Z,44.05
2019-01-25T01:12:54.442Z,45.33
2019-01-25T01:15:24.633Z,42.88
2019-01-25T01:17:55.316Z,47.85
2019-01-25T01:20:25.634Z,45.85
2019-01-25T01:22:55.793Z,56.60
2019-01-25T01:25:25.966Z,39.08
2019-01-25T01:27:55.887Z,45.12
2019-01-25T01:30:26.175Z,47.50
2019-01-25T01:32:56.915Z,52.03
2019-01-25T01:35:27.252Z,44.73
2019-01-25T01:37:57.662Z,37.55
2019-01-25T01:40:27.950Z,43.73
2019-01-25T01:42:58.115Z,45.78
2019-01-25T01:45:28.115Z,43.42
2019-01-25T01:47:58.289Z,44.15
2019-01-25T01:50:28.307Z,43.78
2019-01-25T01:52:58.434Z,51.23
2019-01-25T01:55:28.334Z,47.27
2019-01-25T01:57:58.985Z,49.20
2019-01-25T02:00:30.227Z,51.68
2019-01-25T02:03:00.349Z,48.87
2019-01-25T02:05:30.450Z,45.78
2019-01-25T02:08:00.681Z,50.73
2019-01-25T02:10:30.726Z,55.33
2019-01-25T02:13:00.727Z,55.30
2019-01-25T02:15:30.841Z,50.88
2019-01-25T02:18:00.939Z,56.75
2019-01-25T02:20:32.817Z,49.18
2019-01-25T02:23:03.405Z,54.73
2019-01-25T02:25:33.540Z,55.80
2019-01-25T02:28:03.449Z,55.78
2019-01-25T02:30:33.887Z,46.65
2019-01-25T02:33:04.754Z,59.93
2019-01-25T02:35:35.057Z,55.50
2019-01-25T02:49:15.886Z,61.92
2019-01-25T02:51:46.131Z,53.25
2019-01-25T03:00:40.155Z,53.83
2019-01-25T03:03:10.452Z,56.98
2019-01-25T03:05:40.384Z,55.92
2019-01-25T03:08:10.703Z,53.85
2019-01-25T03:10:47.036Z,53.38
2019-01-25T03:13:12.982Z,57.33
2019-01-25T03:15:43.353Z,69.67
2019-01-25T03:18:13.557Z,69.03
2019-01-25T03:20:43.804Z,56.15
2019-01-25T03:23:14.451Z,56.88
2019-01-25T03:25:44.381Z,61.98
2019-01-25T03:28:14.704Z,55.48
2019-01-25T03:30:44.726Z,49.65
2019-01-25T03:33:14.969Z,61.18
2019-01-25T03:35:45.973Z,51.18
2019-01-25T03:38:15.942Z,51.70
2019-01-25T03:40:46.070Z,60.67
2019-01-25T03:43:16.175Z,45.58
2019-01-25T03:45:46.516Z,56.42
2019-01-25T03:48:16.612Z,56.00
2019-01-25T03:50:46.820Z,46.18
2019-01-25T03:53:16.940Z,58.00
2019-01-25T03:55:47.151Z,56.15
2019-01-25T03:58:17.690Z,46.20
2019-01-25T04:00:48.527Z,33.75
2019-01-25T04:03:18.495Z,57.13
2019-01-25T04:05:48.718Z,59.93
2019-01-25T04:08:19.451Z,50.40
2019-01-25T04:10:49.869Z,42.05
2019-01-25T04:13:21.294Z,51.58
2019-01-25T04:15:51.521Z,62.62
2019-01-25T04:18:21.398Z,52.43
2019-01-25T04:20:51.278Z,53.48
2019-01-25T04:23:21.158Z,29.05
2019-01-25T04:25:51.029Z,53.25
2019-01-25T04:28:21.099Z,52.65
2019-01-25T04:30:51.238Z,47.48
2019-01-25T04:33:21.234Z,44.95
2019-01-25T04:35:51.674Z,41.33
2019-01-25T04:38:21.544Z,47.65
2019-01-25T04:40:52.006Z,50.75
2019-01-25T04:43:22.206Z,60.55
2019-01-25T04:45:53.089Z,51.48
2019-01-25T04:48:23.612Z,61.95
2019-01-25T04:50:54.286Z,51.77
2019-01-25T04:53:24.293Z,63.28
2019-01-25T04:55:54.161Z,47.70
2019-01-25T04:58:24.285Z,62.73
2019-01-25T05:00:54.337Z,54.65
2019-01-25T05:03:24.589Z,64.72
2019-01-25T05:05:54.623Z,54.10
2019-01-25T05:08:25.427Z,59.70
2019-01-25T05:10:55.296Z,60.88
2019-01-25T05:13:25.825Z,55.73
2019-01-25T05:15:55.736Z,69.70
2019-01-25T05:18:25.744Z,58.85
2019-01-25T05:20:56.651Z,55.03
2019-01-25T05:23:26.794Z,51.68
2019-01-25T05:29:32.657Z,63.42
2019-01-25T05:32:06.669Z,57.35
2019-01-25T05:34:37.161Z,61.30
2019-01-25T05:37:10.843Z,61.73
2019-01-25T05:39:40.786Z,56.28
2019-01-25T05:46:02.173Z,67.67
2019-01-25T05:48:32.600Z,62.30
2019-01-25T05:51:04.397Z,74.95
2019-01-25T05:53:35.309Z,62.15
2019-01-25T05:56:06.285Z,61.25
2019-01-25T05:58:36.280Z,65.97
2019-01-25T06:01:06.591Z,58.00
2019-01-25T06:03:36.606Z,60.30
2019-01-25T06:06:10.125Z,65.05
2019-01-25T06:08:44.070Z,62.85
2019-01-25T06:11:13.219Z,55.38
2019-01-25T06:13:47.051Z,71.62
2019-01-25T06:16:17.654Z,69.95
2019-01-25T06:18:48.237Z,55.28
2019-01-25T06:21:18.179Z,58.00
2019-01-25T06:23:49.284Z,61.65
2019-01-25T06:26:19.276Z,76.50
2019-01-25T06:28:53.096Z,59.15
2019-01-25T06:31:25.580Z,67.10
2019-01-25T06:33:55.542Z,60.03
2019-01-25T06:36:25.423Z,67.82
2019-01-25T06:38:55.346Z,84.90
2019-01-25T06:41:25.498Z,81.92
2019-01-25T06:43:55.616Z,65.42
2019-01-25T06:46:25.731Z,61.95
2019-01-25T06:48:55.875Z,66.75
2019-01-25T06:51:25.748Z,66.92
2019-01-25T06:53:55.654Z,52.00
2019-01-25T06:56:25.831Z,57.05
2019-01-25T06:59:12.483Z,66.28
2019-01-25T07:01:49.584Z,58.33
2019-01-25T07:04:19.761Z,62.13
2019-01-25T07:06:49.635Z,57.20
2019-01-25T07:09:19.939Z,62.50
2019-01-25T07:11:51.744Z,58.13
2019-01-25T07:14:21.880Z,57.73
2019-01-25T07:16:52.607Z,58.38
2019-01-25T07:19:23.146Z,58.65
2019-01-25T07:21:53.241Z,60.80
2019-01-25T07:24:23.363Z,78.33
2019-01-25T07:26:53.788Z,67.05
2019-01-25T07:29:23.696Z,65.17
2019-01-25T07:31:54.183Z,59.83
2019-01-25T07:34:24.106Z,58.90
2019-01-25T07:36:54.076Z,53.25
2019-01-25T07:39:27.765Z,72.92
2019-01-25T07:41:59.386Z,54.67
2019-01-25T07:44:29.767Z,55.08
2019-01-25T07:47:01.903Z,59.03
2019-01-25T07:49:32.047Z,53.20
2019-01-25T07:52:02.059Z,57.13
2019-01-25T07:54:31.929Z,66.40
2019-01-25T07:57:01.815Z,56.63
2019-01-25T07:59:32.114Z,61.68
2019-01-25T08:02:02.254Z,58.35
2019-01-25T08:04:32.166Z,86.65
2019-01-25T08:07:02.238Z,51.23
2019-01-25T08:09:32.247Z,55.85
2019-01-25T08:12:07.392Z,64.37
2019-01-25T08:14:34.074Z,57.00
2019-01-25T08:17:04.440Z,57.00
2019-01-25T08:19:34.826Z,60.78
2019-01-25T08:22:04.951Z,54.70
2019-01-25T08:24:34.878Z,53.87
2019-01-25T08:27:04.861Z,62.08
2019-01-25T08:29:34.786Z,71.45
2019-01-25T08:32:04.707Z,53.38
2019-01-25T08:34:34.599Z,57.50
2019-01-25T08:37:04.617Z,47.25
2019-01-25T08:39:34.595Z,56.88
2019-01-25T08:42:05.062Z,53.48
2019-01-25T08:44:34.995Z,58.95
2019-01-25T08:47:05.790Z,60.28
2019-01-25T08:49:35.678Z,55.90
2019-01-25T08:55:32.316Z,47.33
2019-01-25T08:58:02.638Z,66.15
2019-01-25T09:00:32.710Z,63.20
2019-01-25T09:03:02.838Z,50.25
2019-01-25T09:05:33.295Z,57.23
2019-01-25T09:08:03.665Z,54.60
2019-01-25T09:10:33.618Z,55.92
2019-01-25T09:13:03.760Z,57.70
2019-01-25T09:15:33.968Z,65.32
2019-01-25T09:18:04.012Z,44.18
2019-01-25T09:20:34.207Z,60.17
2019-01-25T09:23:04.129Z,61.18
2019-01-25T09:29:25.863Z,49.70
2019-01-25T09:31:55.879Z,65.15
2019-01-25T09:34:25.764Z,49.27
2019-01-25T09:36:55.688Z,52.78
2019-01-25T09:39:25.733Z,61.37
2019-01-25T09:41:55.614Z,52.15
2019-01-25T09:44:25.514Z,51.23
2019-01-25T09:46:55.999Z,60.58
2019-01-25T09:49:25.958Z,55.03
2019-01-25T09:51:55.889Z,57.13
2019-01-25T09:54:26.033Z,60.43
2019-01-25T09:56:55.938Z,58.70
2019-01-25T09:59:25.875Z,49.95
2019-01-25T10:01:55.736Z,49.18
2019-01-25T10:04:25.665Z,48.58
2019-01-25T10:06:55.530Z,56.13
2019-01-25T10:09:25.425Z,49.75
2019-01-25T10:11:55.776Z,50.05
2019-01-25T10:14:25.744Z,49.93
2019-01-25T10:16:55.733Z,49.35
2019-01-25T10:19:26.169Z,56.05
2019-01-25T10:21:56.049Z,52.58
2019-01-25T10:24:26.175Z,47.15
2019-01-25T10:26:56.065Z,47.80
2019-01-25T10:29:26.006Z,37.63
2019-01-25T10:31:55.964Z,37.30
2019-01-25T10:34:25.894Z,48.00
2019-01-25T10:36:56.299Z,51.55
2019-01-25T10:39:26.189Z,42.08
2019-01-25T10:41:56.302Z,44.65
2019-01-25T10:44:26.503Z,42.58
2019-01-25T10:46:56.514Z,47.27
2019-01-25T10:49:26.605Z,37.17
2019-01-25T10:51:56.539Z,42.50
2019-01-25T10:54:26.450Z,53.33
2019-01-25T10:56:56.320Z,55.23
2019-01-25T10:59:26.359Z,43.30
2019-01-25T11:01:56.571Z,40.12
2019-01-25T11:04:26.782Z,44.73
2019-01-25T11:06:56.834Z,42.63
2019-01-25T11:09:26.805Z,41.83
2019-01-25T11:11:57.021Z,44.87
2019-01-25T11:14:27.498Z,40.63
2019-01-25T11:16:57.486Z,36.37
2019-01-25T11:19:27.595Z,36.87
2019-01-25T11:21:57.780Z,39.80
2019-01-25T11:24:27.612Z,31.90
2019-01-25T11:27:00.367Z,35.20
2019-01-25T11:29:29.520Z,33.00
2019-01-25T11:31:59.392Z,44.13
2019-01-25T11:34:33.103Z,43.45
2019-01-25T11:37:00.914Z,42.47
2019-01-25T11:43:21.754Z,44.00
2019-01-25T11:53:11.149Z,40.17
2019-01-25T11:55:41.504Z,40.03
2019-01-25T11:58:11.529Z,45.37
2019-01-25T12:00:45.678Z,55.03
2019-01-25T12:03:15.692Z,44.27
2019-01-25T12:05:45.921Z,49.73
2019-01-25T12:08:15.954Z,44.15
2019-01-25T12:10:45.822Z,51.35
2019-01-25T12:13:16.509Z,50.40
2019-01-25T12:15:46.689Z,44.15
2019-01-25T12:18:16.604Z,47.80
2019-01-25T12:20:46.566Z,42.48
2019-01-25T12:23:16.514Z,46.10
2019-01-25T12:25:46.521Z,42.23
2019-01-25T12:28:16.538Z,39.08
2019-01-25T12:30:46.628Z,41.47
2019-01-25T12:33:16.571Z,27.52
2019-01-25T12:35:46.610Z,27.87
2019-01-25T12:38:16.473Z,29.80
2019-01-25T12:40:46.392Z,28.77
2019-01-25T12:43:23.729Z,32.20
2019-01-25T12:45:50.238Z,30.03
2019-01-25T12:48:20.870Z,34.80
2019-01-25T12:51:02.670Z,32.80
2019-01-25T12:53:34.028Z,36.27
2019-01-25T12:56:04.540Z,27.60
2019-01-25T12:58:34.456Z,32.07
2019-01-25T13:01:06.066Z,33.90
2019-01-25T13:03:36.387Z,32.80
2019-01-25T13:06:07.293Z,32.60
2019-01-25T13:08:37.220Z,29.63
2019-01-25T13:11:07.573Z,28.83
2019-01-25T13:13:37.447Z,33.63
2019-01-25T13:16:07.392Z,33.03
2019-01-25T13:18:37.264Z,35.93
2019-01-25T13:21:07.286Z,37.42
2019-01-25T13:23:37.166Z,69.27
2019-01-25T13:26:07.531Z,35.13
2019-01-25T13:28:41.625Z,40.03
2019-01-25T13:31:09.432Z,33.78
2019-01-25T13:33:39.575Z,34.78
2019-01-25T13:36:13.646Z,43.90
2019-01-25T13:38:44.097Z,35.37
2019-01-25T13:41:14.069Z,35.03
2019-01-25T13:43:44.030Z,32.47
2019-01-25T13:46:14.241Z,35.75
2019-01-25T13:48:44.700Z,32.42
2019-01-25T13:51:14.588Z,36.33
2019-01-25T13:53:44.461Z,32.08
2019-01-25T13:56:14.345Z,36.15
2019-01-25T13:58:44.497Z,32.25
2019-01-25T14:01:14.654Z,29.57
2019-01-25T14:03:44.530Z,34.90
2019-01-25T14:06:14.594Z,30.97
2019-01-25T14:08:45.438Z,29.75
2019-01-25T14:11:15.315Z,33.13
2019-01-25T14:13:46.915Z,35.30
2019-01-25T14:16:17.050Z,41.23
2019-01-25T14:18:47.233Z,35.73
2019-01-25T14:21:17.403Z,34.15
2019-01-25T14:23:47.302Z,35.78
2019-01-25T14:26:17.224Z,36.95
2019-01-25T14:28:47.339Z,35.92
2019-01-25T14:31:17.473Z,33.65
2019-01-25T14:33:47.423Z,36.88
2019-01-25T14:36:17.947Z,33.92
2019-01-25T14:38:48.099Z,36.90
2019-01-25T14:41:18.489Z,37.00
2019-01-25T14:43:54.435Z,38.10
2019-01-25T14:46:20.873Z,32.35
2019-01-25T14:48:50.751Z,34.65
2019-01-25T14:51:20.655Z,30.88
2019-01-25T14:53:51.170Z,31.77
2019-01-25T14:56:21.047Z,30.40
2019-01-25T14:58:51.430Z,35.00
2019-01-25T15:01:21.651Z,31.80
2019-01-25T15:03:51.601Z,39.08
2019-01-25T15:17:43.981Z,32.38
2019-01-25T15:20:20.321Z,37.83
2019-01-25T15:29:25.870Z,32.90
2019-01-25T15:31:55.745Z,41.60
2019-01-25T15:34:25.961Z,38.70
2019-01-25T15:36:56.019Z,32.03
2019-01-25T15:39:26.391Z,32.45
2019-01-25T15:41:56.445Z,36.65
2019-01-25T15:44:26.917Z,30.60
2019-01-25T15:46:57.129Z,37.37
2019-01-25T15:49:27.098Z,39.50
2019-01-25T15:51:57.215Z,30.27
2019-01-25T15:54:27.432Z,28.98
2019-01-25T15:56:57.355Z,34.38
2019-01-25T15:59:27.247Z,31.57
2019-01-25T16:01:57.492Z,32.70
2019-01-25T16:04:34.592Z,37.40
2019-01-25T16:06:59.310Z,33.15
2019-01-25T16:09:29.574Z,27.67
2019-01-25T16:12:00.605Z,30.85
2019-01-25T16:14:31.455Z,36.05
2019-01-25T16:17:02.526Z,26.10
2019-01-25T16:19:33.279Z,33.25
2019-01-25T16:22:03.217Z,30.40
2019-01-25T16:24:33.271Z,28.10
2019-01-25T16:27:04.251Z,26.00
2019-01-25T16:29:34.434Z,35.65
2019-01-25T16:32:04.330Z,33.73
2019-01-25T16:34:34.485Z,27.35
2019-01-25T16:37:05.051Z,37.73
2019-01-25T16:39:35.010Z,30.90
2019-01-25T16:42:04.960Z,27.20
2019-01-25T16:44:36.288Z,41.63
2019-01-25T16:47:06.393Z,38.88
2019-01-25T16:49:36.553Z,31.75
2019-01-25T16:52:06.629Z,33.28
2019-01-25T16:54:36.878Z,30.57
2019-01-25T16:57:06.945Z,37.40
2019-01-25T16:59:36.829Z,34.73
2019-01-25T17:02:06.877Z,28.65
2019-01-25T17:04:36.831Z,30.43
2019-01-25T17:07:10.840Z,35.78
2019-01-25T17:09:41.522Z,30.55
2019-01-25T17:12:11.587Z,28.73
2019-01-25T17:14:41.997Z,32.10
2019-01-25T17:17:11.892Z,36.93
2019-01-25T17:19:41.803Z,32.73
2019-01-25T17:22:12.100Z,34.38
2019-01-25T17:24:42.319Z,40.83
2019-01-25T17:27:12.752Z,33.42
2019-01-25T17:29:43.131Z,33.85
2019-01-25T17:32:13.137Z,33.30
2019-01-25T17:34:43.033Z,34.90
2019-01-25T17:37:13.192Z,32.50
2019-01-25T17:39:43.121Z,35.85
2019-01-25T17:42:13.716Z,30.37
2019-01-25T17:44:43.611Z,36.08
2019-01-25T17:47:13.761Z,27.00
2019-01-25T17:49:44.189Z,30.57
2019-01-25T17:52:33.638Z,32.60
2019-01-25T17:55:03.996Z,30.45
2019-01-25T17:57:34.279Z,30.80
2019-01-25T18:00:12.363Z,25.52
2019-01-25T18:02:42.347Z,32.35
2019-01-25T18:05:12.679Z,26.50
2019-01-25T18:07:44.209Z,20.68
2019-01-25T18:10:16.090Z,24.18
2019-01-25T18:12:46.086Z,26.27
2019-01-25T18:15:16.451Z,20.35
2019-01-25T18:17:46.693Z,20.57
2019-01-25T18:20:17.504Z,16.32
2019-01-25T18:22:47.819Z,21.52
2019-01-25T18:25:23.223Z,16.87
2019-01-25T18:27:58.639Z,24.40
2019-01-25T18:31:18.526Z,19.23
2019-01-25T18:33:49.073Z,20.65
2019-01-25T18:36:19.099Z,16.70
2019-01-25T18:42:39.879Z,33.25
2019-01-25T18:45:10.044Z,22.17
2019-01-25T18:47:40.129Z,22.60
2019-01-25T18:50:12.683Z,26.97
2019-01-25T18:52:42.634Z,23.10
2019-01-25T18:55:16.449Z,19.52
2019-01-25T18:57:47.167Z,18.45
2019-01-25T19:00:19.682Z,18.45
2019-01-25T19:02:49.865Z,20.43
2019-01-25T19:05:20.480Z,24.32
2019-01-25T19:07:50.828Z,24.87
2019-01-25T19:10:23.764Z,21.52
2019-01-25T19:12:53.673Z,19.90
2019-01-25T19:15:27.394Z,23.35
2019-01-25T19:17:57.778Z,19.25
2019-01-25T19:20:28.112Z,22.82
2019-01-25T19:22:58.891Z,29.23
2019-01-25T19:25:29.359Z,20.97
2019-01-25T19:27:59.241Z,18.70
2019-01-25T19:30:33.719Z,22.13
2019-01-25T19:33:03.964Z,21.27
2019-01-25T19:35:34.011Z,24.43
2019-01-25T19:38:04.183Z,23.27
2019-01-25T19:40:34.328Z,26.95
2019-01-25T19:43:04.489Z,23.18
2019-01-25T19:45:34.680Z,18.25
2019-01-25T19:48:05.574Z,23.32
2019-01-25T19:50:35.692Z,21.00
2019-01-25T19:53:07.006Z,23.18
2019-01-25T19:55:37.193Z,27.05
2019-01-25T19:58:09.781Z,28.05
2019-01-25T20:00:40.996Z,24.77
2019-01-25T20:03:11.069Z,22.62
2019-01-25T20:05:42.170Z,24.35
2019-01-25T20:08:12.231Z,24.30
2019-01-25T20:10:42.315Z,15.88
2019-01-25T20:13:13.231Z,25.62
2019-01-25T20:15:43.223Z,26.75
2019-01-25T20:18:13.523Z,23.10
2019-01-25T20:20:43.718Z,19.42
2019-01-25T20:23:13.723Z,25.55
2019-01-25T20:25:43.985Z,22.98
2019-01-25T20:28:14.042Z,21.40
2019-01-25T20:30:49.601Z,24.67
2019-01-25T20:33:16.290Z,22.85
2019-01-25T20:35:46.914Z,19.98
2019-01-25T20:38:16.877Z,22.13
2019-01-25T20:40:46.932Z,15.13
2019-01-25T20:43:17.193Z,18.85
2019-01-25T20:45:47.262Z,22.10
2019-01-25T20:48:17.470Z,15.55
2019-01-25T20:50:47.632Z,14.75
2019-01-25T20:53:17.909Z,15.20
2019-01-25T20:55:48.058Z,17.52
2019-01-25T20:58:18.282Z,22.45
2019-01-25T21:00:48.771Z,13.90
2019-01-25T21:03:19.015Z,17.07
2019-01-25T21:05:49.055Z,19.10
2019-01-25T21:08:19.302Z,12.93
2019-01-25T21:10:49.492Z,14.58
2019-01-25T21:13:20.048Z,18.27
2019-01-25T21:15:50.071Z,16.82
2019-01-25T21:18:20.171Z,18.67
2019-01-25T21:20:50.271Z,16.62
2019-01-25T21:23:20.211Z,13.90
2019-01-25T21:25:50.185Z,17.90
2019-01-25T21:28:20.236Z,12.93
2019-01-25T21:30:50.465Z,20.70
2019-01-25T21:33:20.867Z,17.62
2019-01-25T21:35:50.790Z,18.82
2019-01-25T21:38:20.990Z,12.18
2019-01-25T21:40:50.970Z,13.45
2019-01-25T21:43:20.965Z,19.73
2019-01-25T21:45:51.156Z,15.35
2019-01-25T21:48:21.229Z,14.30
2019-01-25T21:50:51.150Z,15.65
2019-01-25T21:53:21.393Z,18.60
2019-01-25T21:55:51.405Z,17.95
2019-01-25T21:58:22.027Z,15.18
2019-01-25T22:00:52.669Z,17.55
2019-01-25T22:03:23.284Z,21.55
2019-01-25T22:05:54.122Z,14.38
2019-01-25T22:08:25.061Z,12.65
2019-01-25T22:10:55.491Z,18.35
2019-01-25T22:13:26.310Z,15.72
2019-01-25T22:15:56.243Z,14.58
2019-01-25T22:18:26.162Z,15.83
2019-01-25T22:20:56.088Z,14.38
2019-01-25T22:23:26.634Z,12.90
2019-01-25T22:25:56.840Z,14.07
2019-01-25T22:28:27.041Z,14.40
2019-01-25T22:30:56.949Z,11.57
2019-01-25T22:33:27.343Z,11.00
2019-01-25T22:35:58.009Z,14.70
2019-01-25T22:38:27.905Z,12.33
2019-01-25T22:40:57.830Z,9.10
2019-01-25T22:43:43.032Z,15.08
2019-01-25T22:46:08.513Z,13.00
2019-01-25T22:48:39.181Z,12.00
2019-01-25T22:51:09.424Z,11.30
2019-01-25T22:53:39.674Z,11.75
2019-01-25T22:56:09.598Z,12.03
2019-01-25T22:58:39.721Z,11.80
2019-01-25T23:01:26.030Z,16.62
2019-01-25T23:05:05.278Z,10.95
2019-01-25T23:07:37.112Z,19.70
2019-01-25T23:10:17.628Z,14.45
2019-01-25T23:12:47.537Z,14.30
2019-01-25T23:15:18.750Z,9.73
2019-01-25T23:17:49.565Z,15.23
2019-01-25T23:20:19.603Z,13.43
2019-01-25T23:22:49.760Z,13.28
2019-01-25T23:25:19.854Z,10.48
2019-01-25T23:27:50.138Z,12.40
2019-01-25T23:30:20.518Z,14.38
2019-01-25T23:32:50.772Z,14.53
2019-01-25T23:35:21.090Z,10.85
2019-01-25T23:37:51.095Z,12.23
2019-01-25T23:40:21.186Z,15.95
2019-01-25T23:42:51.565Z,11.90
2019-01-25T23:45:21.811Z,14.20
2019-01-25T23:47:51.750Z,11.00
2019-01-25T23:50:21.702Z,11.57
2019-01-25T23:52:51.896Z,14.33
2019-01-25T23:55:21.870Z,15.98
2019-01-25T23:57:51.821Z,13.48
